Página principal
METAR-TAF:

METAR-TAF

Aeroportos :

Aeroporto Internacional de Vladivostok

Vladivostok, Rússia

latitude: 43-07N, longitude: 131-56E, altura: 184 m

Observação actual do tempo

O boletim foi feito há 21 minutos, às 06:30 UTC
Vento 8 kt de nor-nordeste
Temperatura -8°C
Humidade 31%
Pressão 1035 hPa
Visibilidade 10 km ou mais

METAR: UHWW 100630Z 02004MPS 9999 NSC M08/M22 Q1035 R25L/0///70 NOSIG RMK QFE775

Hora: 16:51 (06:51 UTC)

Previsão

O boletim foi feito há 1 hora e 51 minutos, às 05:00 UTC
Previsão válida de 10 às 06 UTC a 11 às 06 UTC
Vento 6 kt de nor-noroeste
Visibilidade 10 km ou mais
Temporariamente
de 10 às 06 UTC a 10 às 12 UTC
Vento 17 kt de norte
Nuvens dispersasa uma altura de 2000 ft

TAF: UHWW 100500Z 1006/1106 34003MPS 9999 NSC TEMPO 1006/1012 36009MPS SCT020

Observações e previsões do tempo de mais de 4000 aeroportos (mensagens METAR e TAF).

As estações disponíveis são os pontos amarelos e vermelhos sobre o mapa.

Mova o rato sobre o mapa para ver o nome da estação.

Depois clique no ponto para visualizar as observações e previsões meteorológicas.

Para alterar o mapa : clique nos botões verdes com uma cruz preta para aumentar o zoom; no botão verde com uma pitada de zoom; ou nas setas verdes para mapas adjacentes.


METAR-TAF: